International Virtual Aviation Organisation

Russian Federation and Kazakhstan MCD

 
UWUU 271600Z 16001MPS 4500 -SN BR OVC014 M07/M08 Q1027 R14R/490550 TEMPO 1500 SN BR BKN008
QNH:(hPa/inHg/mmHg)1027 / 30.33 / 770
QFE:(hPa/inHg/mmHg)1010 / 29.84 / 758
Temperature-7
Dew Point-8
Visibility1500
WeatherLight Snow;Mist;Snow;Mist
Cloud CoverOVC (1400);
BKN (800);
Transition Altitude5000 ft.
Transition LevelFL60
SQUAWK